Terminal Aerodrome Forecast
Issued by NWS

Home | Current Version | Previous Version | Graphics & Text | Print | Product List | Glossary On
Versions: 1 2 3 4 5 6 7 8 9 10 11 12
000
FTUS43 KGRB 161723
TAFAUW
TAF
KAUW 161723Z 1618/1718 25009G15KT P6SM SKC
     FM162200 22005KT P6SM SKC
     FM170400 22005KT P6SM SKC WS020/24040KT
     FM170900 24004KT P6SM SKC=

USA.gov is the U.S. government's official web portal to all federal, state and local government web resources and services.